Time;durP1;ratioP1;P1;durP2;ratioP2;P2;SDS_P1;SDS_P2;PMS_P1;PMS_P2;Temp;Humidity;BMP_temperature;BMP_pressure;BME280_temperature;BME280_humidity;BME280_pressure;Samples;Min_cycle;Max_cycle;Signal;HPM_P1;HPM_P2
2023/09/10 00:01:15;;;;;;;10.90;2.83;;;;;;;;;;5074036;28;20207;-52
2023/09/10 00:03:59;;;;;;;6.75;2.67;;;;;;;;;;5074257;28;20201;-53
2023/09/10 00:06:26;;;;;;;8.10;2.58;;;;;;;;;;5074243;28;20208;-50
2023/09/10 00:08:53;;;;;;;9.30;2.85;;;;;;;;;;5073949;28;20207;-51
2023/09/10 00:11:20;;;;;;;6.68;2.33;;;;;;;;;;5073851;28;20616;-49
2023/09/10 00:13:47;;;;;;;4.22;2.30;;;;;;;;;;5073633;28;20618;-50
2023/09/10 00:16:14;;;;;;;5.90;2.70;;;;;;;;;;5073995;28;20250;-54
2023/09/10 00:18:43;;;;;;;5.78;2.75;;;;;;;;;;5073838;28;20203;-52
2023/09/10 00:21:10;;;;;;;7.50;2.67;;;;;;;;;;5073870;28;20199;-50
2023/09/10 00:23:37;;;;;;;6.40;2.78;;;;;;;;;;5073613;28;20199;-51
2023/09/10 00:26:04;;;;;;;6.45;2.90;;;;;;;;;;5073834;28;20214;-49
2023/09/10 00:28:32;;;;;;;6.20;2.65;;;;;;;;;;5073512;28;20199;-51
2023/09/10 00:30:59;;;;;;;6.07;2.90;;;;;;;;;;5073776;28;20557;-49
2023/09/10 00:33:26;;;;;;;4.47;2.60;;;;;;;;;;5073382;28;20571;-49
2023/09/10 00:35:53;;;;;;;6.88;2.67;;;;;;;;;;5073492;28;20209;-54
2023/09/10 00:38:20;;;;;;;4.97;2.65;;;;;;;;;;5073515;28;20207;-51
2023/09/10 00:40:47;;;;;;;5.03;2.65;;;;;;;;;;5071779;28;20200;-53
2023/09/10 00:43:14;;;;;;;5.60;2.20;;;;;;;;;;5072832;28;20208;-49
2023/09/10 00:45:41;;;;;;;8.15;2.40;;;;;;;;;;5070518;28;20289;-49
2023/09/10 00:48:09;;;;;;;6.25;2.78;;;;;;;;;;5070106;28;20663;-53
2023/09/10 00:50:36;;;;;;;5.10;2.63;;;;;;;;;;5052531;28;20196;-49
2023/09/10 00:53:04;;;;;;;6.30;2.45;;;;;;;;;;5070115;28;20231;-49
2023/09/10 00:55:34;;;;;;;7.28;2.55;;;;;;;;;;5071563;28;20204;-50
2023/09/10 00:58:02;;;;;;;5.78;2.78;;;;;;;;;;5070550;28;20203;-56
2023/09/10 01:00:29;;;;;;;8.15;2.60;;;;;;;;;;5072286;28;20573;-51
2023/09/10 01:02:58;;;;;;;5.35;2.38;;;;;;;;;;5073377;28;20266;-51
2023/09/10 01:05:26;;;;;;;7.28;2.50;;;;;;;;;;5073318;28;20206;-51
2023/09/10 01:07:54;;;;;;;4.00;2.22;;;;;;;;;;5073144;28;20212;-49
2023/09/10 01:10:25;;;;;;;8.07;2.47;;;;;;;;;;5072227;28;20207;-52
2023/09/10 01:13:02;;;;;;;8.98;3.00;;;;;;;;;;5071997;28;20227;-53
2023/09/10 01:15:41;;;;;;;6.97;2.45;;;;;;;;;;5072255;28;20239;-50
2023/09/10 01:18:14;;;;;;;4.57;2.28;;;;;;;;;;5072072;28;20207;-51
2023/09/10 01:21:05;;;;;;;5.78;2.40;;;;;;;;;;5072242;28;20191;-49
2023/09/10 01:23:52;;;;;;;5.05;2.65;;;;;;;;;;5072039;28;20211;-52
2023/09/10 01:26:19;;;;;;;7.40;2.90;;;;;;;;;;5072939;28;20663;-51
2023/09/10 01:28:47;;;;;;;5.15;2.65;;;;;;;;;;5071712;28;20200;-53
2023/09/10 01:31:14;;;;;;;3.47;2.20;;;;;;;;;;5073177;28;20210;-50
2023/09/10 01:33:46;;;;;;;4.90;2.65;;;;;;;;;;5072934;28;20288;-49
2023/09/10 01:36:28;;;;;;;5.55;2.20;;;;;;;;;;5055458;28;20207;-49
2023/09/10 01:39:12;;;;;;;9.10;2.72;;;;;;;;;;5072585;28;20222;-50
2023/09/10 01:41:40;;;;;;;4.57;2.33;;;;;;;;;;5071747;28;20210;-47
2023/09/10 01:44:08;;;;;;;5.20;2.40;;;;;;;;;;5055389;28;20215;-48
2023/09/10 01:46:36;;;;;;;4.50;2.60;;;;;;;;;;5073203;28;20207;-47
2023/09/10 01:49:04;;;;;;;5.85;2.45;;;;;;;;;;5073056;28;20474;-48
2023/09/10 01:51:31;;;;;;;4.35;2.70;;;;;;;;;;5072842;28;20648;-50
2023/09/10 01:53:58;;;;;;;11.95;2.17;;;;;;;;;;5072828;28;20223;-51
2023/09/10 01:56:25;;;;;;;6.07;2.63;;;;;;;;;;5072690;28;20309;-48
2023/09/10 01:58:53;;;;;;;5.82;2.30;;;;;;;;;;5071410;28;20208;-48
2023/09/10 02:01:20;;;;;;;4.45;2.63;;;;;;;;;;5074133;28;20223;-48
2023/09/10 02:03:47;;;;;;;6.10;2.95;;;;;;;;;;5076240;28;20344;-48
2023/09/10 02:06:15;;;;;;;5.32;2.47;;;;;;;;;;5076191;28;20743;-48
2023/09/10 02:08:43;;;;;;;5.95;2.35;;;;;;;;;;5076378;28;20200;-47
2023/09/10 02:11:10;;;;;;;8.35;2.55;;;;;;;;;;5075099;28;20261;-49
2023/09/10 02:13:37;;;;;;;4.65;2.10;;;;;;;;;;5074980;28;20231;-49
2023/09/10 02:16:05;;;;;;;5.63;2.33;;;;;;;;;;5074736;28;20238;-49
2023/09/10 02:18:32;;;;;;;4.22;2.38;;;;;;;;;;5075052;28;20211;-50
2023/09/10 02:20:59;;;;;;;6.65;2.63;;;;;;;;;;5076024;28;20208;-48
2023/09/10 02:23:27;;;;;;;8.65;2.65;;;;;;;;;;5076060;28;20253;-48
2023/09/10 02:25:54;;;;;;;6.18;2.45;;;;;;;;;;5076096;28;20199;-49
2023/09/10 02:28:23;;;;;;;9.02;2.75;;;;;;;;;;5074734;28;20203;-48
2023/09/10 02:30:50;;;;;;;6.85;2.85;;;;;;;;;;5075795;28;20269;-50
2023/09/10 02:33:18;;;;;;;4.75;2.58;;;;;;;;;;5075863;28;20238;-51
2023/09/10 02:35:45;;;;;;;6.43;2.45;;;;;;;;;;5075944;28;20214;-48
2023/09/10 02:38:12;;;;;;;5.32;2.40;;;;;;;;;;5075620;28;20207;-48
2023/09/10 02:40:39;;;;;;;6.90;2.78;;;;;;;;;;5075886;28;20207;-49
2023/09/10 02:43:07;;;;;;;5.70;2.72;;;;;;;;;;5074325;28;20570;-48
2023/09/10 02:45:34;;;;;;;4.75;2.80;;;;;;;;;;5074242;28;20584;-51
2023/09/10 02:48:02;;;;;;;6.15;2.40;;;;;;;;;;5074610;28;20229;-50
2023/09/10 02:50:29;;;;;;;10.52;2.35;;;;;;;;;;5075662;28;20200;-48
2023/09/10 02:52:56;;;;;;;3.88;2.45;;;;;;;;;;5074358;28;20203;-50
2023/09/10 02:55:23;;;;;;;5.47;2.42;;;;;;;;;;5075834;28;20290;-50
2023/09/10 02:57:51;;;;;;;8.25;2.75;;;;;;;;;;5075340;28;20207;-48
2023/09/10 03:00:22;;;;;;;3.65;2.10;;;;;;;;;;5075204;28;20294;-49
2023/09/10 03:02:56;;;;;;;4.07;2.50;;;;;;;;;;5074390;28;20200;-51
2023/09/10 03:05:24;;;;;;;7.90;2.17;;;;;;;;;;5075101;28;20637;-52
2023/09/10 03:07:53;;;;;;;4.82;2.35;;;;;;;;;;5075132;28;20210;-49
2023/09/10 03:10:20;;;;;;;5.10;2.70;;;;;;;;;;5073982;28;20235;-54
2023/09/10 03:12:48;;;;;;;5.40;2.50;;;;;;;;;;5072648;28;20199;-50
2023/09/10 03:15:15;;;;;;;5.50;2.60;;;;;;;;;;5073579;28;20243;-53
2023/09/10 03:17:42;;;;;;;5.70;2.35;;;;;;;;;;5074799;28;20203;-51
2023/09/10 03:20:10;;;;;;;5.25;2.67;;;;;;;;;;5073572;28;20203;-52
2023/09/10 03:22:37;;;;;;;6.43;2.58;;;;;;;;;;5073447;28;20686;-51
2023/09/10 03:25:05;;;;;;;4.38;2.20;;;;;;;;;;5073677;28;20222;-50
2023/09/10 03:27:33;;;;;;;6.20;2.80;;;;;;;;;;5073109;28;20199;-51
2023/09/10 03:30:01;;;;;;;5.68;2.28;;;;;;;;;;5073357;28;20572;-48
2023/09/10 03:32:28;;;;;;;6.35;2.55;;;;;;;;;;5073144;28;20200;-49
2023/09/10 03:34:55;;;;;;;6.97;2.63;;;;;;;;;;5073280;28;20690;-49
2023/09/10 03:37:23;;;;;;;6.10;2.97;;;;;;;;;;5074431;28;20207;-50
2023/09/10 03:39:50;;;;;;;4.18;2.10;;;;;;;;;;5072915;28;20207;-50
2023/09/10 03:42:17;;;;;;;5.05;2.70;;;;;;;;;;5074390;28;20265;-53
2023/09/10 03:44:45;;;;;;;4.93;2.08;;;;;;;;;;5073198;28;20203;-51
2023/09/10 03:47:12;;;;;;;5.72;2.42;;;;;;;;;;5073017;28;20203;-53
2023/09/10 03:49:39;;;;;;;9.13;2.50;;;;;;;;;;5072852;28;20200;-49
2023/09/10 03:52:19;;;;;;;5.55;2.60;;;;;;;;;;5072722;28;20578;-50
2023/09/10 03:54:46;;;;;;;10.50;2.28;;;;;;;;;;5072662;28;20280;-53
2023/09/10 03:57:14;;;;;;;8.25;2.50;;;;;;;;;;5072894;28;20294;-51
2023/09/10 03:59:42;;;;;;;4.30;2.08;;;;;;;;;;5072569;28;20200;-53
2023/09/10 04:02:13;;;;;;;6.55;2.35;;;;;;;;;;5072653;28;20222;-50
2023/09/10 04:04:41;;;;;;;7.30;2.35;;;;;;;;;;5073639;28;20568;-49
2023/09/10 04:07:09;;;;;;;4.45;2.38;;;;;;;;;;5073540;28;20207;-49
2023/09/10 04:09:36;;;;;;;6.00;2.50;;;;;;;;;;5072645;28;20668;-50
2023/09/10 04:12:03;;;;;;;3.92;2.45;;;;;;;;;;5073876;28;20261;-49
2023/09/10 04:14:31;;;;;;;6.78;2.53;;;;;;;;;;5072206;28;20230;-50
2023/09/10 04:16:58;;;;;;;6.13;2.20;;;;;;;;;;5072631;28;20195;-50
2023/09/10 04:19:25;;;;;;;7.40;2.45;;;;;;;;;;5073421;28;20199;-53
2023/09/10 04:21:52;;;;;;;5.25;2.22;;;;;;;;;;5072380;28;20203;-50
2023/09/10 04:24:19;;;;;;;4.50;2.63;;;;;;;;;;5072249;28;20203;-50
2023/09/10 04:26:47;;;;;;;6.15;2.33;;;;;;;;;;5072483;28;20211;-52
2023/09/10 04:29:14;;;;;;;5.15;2.85;;;;;;;;;;5073653;28;20204;-52
2023/09/10 04:31:44;;;;;;;9.57;2.42;;;;;;;;;;5073890;28;20211;-53
2023/09/10 04:34:12;;;;;;;5.13;2.47;;;;;;;;;;5072382;28;20230;-49
2023/09/10 04:36:39;;;;;;;7.22;2.50;;;;;;;;;;5073938;28;20199;-49
2023/09/10 04:39:09;;;;;;;6.53;2.75;;;;;;;;;;5073702;28;20211;-49
2023/09/10 04:41:40;;;;;;;4.93;2.58;;;;;;;;;;5072311;28;20210;-51
2023/09/10 04:44:08;;;;;;;3.53;2.45;;;;;;;;;;5072326;28;20210;-50
2023/09/10 04:46:36;;;;;;;6.90;2.65;;;;;;;;;;5072210;28;20203;-49
2023/09/10 04:49:03;;;;;;;4.47;2.35;;;;;;;;;;5071442;28;20203;-56
2023/09/10 04:51:31;;;;;;;8.70;2.70;;;;;;;;;;5084025;28;20682;-54
2023/09/10 04:53:59;;;;;;;6.05;2.83;;;;;;;;;;5068569;28;20222;-52
2023/09/10 04:56:26;;;;;;;6.13;2.67;;;;;;;;;;5071499;28;20199;-50
2023/09/10 04:58:53;;;;;;;9.05;3.20;;;;;;;;;;5073105;28;20192;-51
2023/09/10 05:01:21;;;;;;;6.78;2.72;;;;;;;;;;5071474;28;20222;-50
2023/09/10 05:03:48;;;;;;;5.18;3.00;;;;;;;;;;5071694;28;20214;-57
2023/09/10 05:06:17;;;;;;;4.47;2.70;;;;;;;;;;5071433;28;20195;-48
2023/09/10 05:08:44;;;;;;;5.25;2.67;;;;;;;;;;5072725;28;20199;-57
2023/09/10 05:11:12;;;;;;;6.22;2.65;;;;;;;;;;5068759;28;20211;-52
2023/09/10 05:13:39;;;;;;;6.22;2.60;;;;;;;;;;5073031;28;20192;-50
2023/09/10 05:16:06;;;;;;;5.43;2.80;;;;;;;;;;5070918;28;20288;-56
2023/09/10 05:18:33;;;;;;;6.90;3.22;;;;;;;;;;5071856;28;20199;-57
2023/09/10 05:21:01;;;;;;;5.28;2.90;;;;;;;;;;5071603;28;20208;-53
2023/09/10 05:23:28;;;;;;;8.13;3.22;;;;;;;;;;5071282;28;20220;-52
2023/09/10 05:26:00;;;;;;;5.65;2.55;;;;;;;;;;5071324;28;20199;-54
2023/09/10 05:28:28;;;;;;;5.53;3.17;;;;;;;;;;5071237;28;20203;-49
2023/09/10 05:30:55;;;;;;;7.70;3.35;;;;;;;;;;5072743;28;20222;-50
2023/09/10 05:33:22;;;;;;;7.50;3.30;;;;;;;;;;5061215;28;20202;-52
2023/09/10 05:35:55;;;;;;;8.93;3.15;;;;;;;;;;5074944;28;20227;-53
2023/09/10 05:38:23;;;;;;;8.13;3.40;;;;;;;;;;5076227;28;20188;-50
2023/09/10 05:40:51;;;;;;;7.28;2.95;;;;;;;;;;5075720;28;20211;-51
2023/09/10 05:43:18;;;;;;;8.60;3.97;;;;;;;;;;5062307;28;20230;-53
2023/09/10 05:45:46;;;;;;;11.63;3.83;;;;;;;;;;5066280;28;20210;-56
2023/09/10 05:48:13;;;;;;;7.05;3.67;;;;;;;;;;5076368;28;20207;-52
2023/09/10 05:50:42;;;;;;;7.22;3.63;;;;;;;;;;5075531;28;20211;-54
2023/09/10 05:53:09;;;;;;;7.22;3.53;;;;;;;;;;5074961;28;20198;-50
2023/09/10 05:55:41;;;;;;;9.63;4.07;;;;;;;;;;5074920;28;20226;-52
2023/09/10 05:58:08;;;;;;;7.05;3.92;;;;;;;;;;5074456;28;20204;-54
2023/09/10 06:00:36;;;;;;;12.48;3.70;;;;;;;;;;5072314;28;20199;-51
2023/09/10 06:03:06;;;;;;;9.13;4.65;;;;;;;;;;5069103;28;20315;-50
2023/09/10 06:05:34;;;;;;;7.88;4.07;;;;;;;;;;5073506;28;20227;-50
2023/09/10 06:08:02;;;;;;;10.60;4.10;;;;;;;;;;5071137;28;20227;-54
2023/09/10 06:10:29;;;;;;;9.40;4.30;;;;;;;;;;5073986;28;20574;-55
2023/09/10 06:12:56;;;;;;;9.20;3.78;;;;;;;;;;5073583;28;20651;-51
2023/09/10 06:15:24;;;;;;;8.85;3.90;;;;;;;;;;5073781;28;20238;-51
2023/09/10 06:17:51;;;;;;;10.57;4.47;;;;;;;;;;5057227;28;20249;-53
2023/09/10 06:20:19;;;;;;;6.93;3.67;;;;;;;;;;5073938;28;20219;-53
2023/09/10 06:22:46;;;;;;;10.10;4.30;;;;;;;;;;5073160;28;20219;-53
2023/09/10 06:25:13;;;;;;;10.57;4.03;;;;;;;;;;5055301;28;20715;-52
2023/09/10 06:27:40;;;;;;;9.73;4.20;;;;;;;;;;5054941;28;20716;-53
2023/09/10 06:30:08;;;;;;;10.95;4.20;;;;;;;;;;5037535;28;20232;-54
2023/09/10 06:32:35;;;;;;;7.80;4.15;;;;;;;;;;5053570;28;20220;-50
2023/09/10 06:35:02;;;;;;;9.15;3.80;;;;;;;;;;5053637;28;20239;-55
2023/09/10 06:37:29;;;;;;;11.05;4.00;;;;;;;;;;5053574;28;20712;-54
2023/09/10 06:39:57;;;;;;;8.77;4.03;;;;;;;;;;5053900;28;20265;-50
2023/09/10 06:42:25;;;;;;;9.82;4.30;;;;;;;;;;5064935;28;20306;-56
2023/09/10 06:45:09;;;;;;;8.95;4.13;;;;;;;;;;5057643;28;20224;-53
2023/09/10 06:47:36;;;;;;;11.95;4.47;;;;;;;;;;5073497;28;20269;-54
2023/09/10 06:50:04;;;;;;;10.90;4.63;;;;;;;;;;5074875;28;20223;-52
2023/09/10 06:52:31;;;;;;;9.30;4.72;;;;;;;;;;5073228;28;20277;-52
2023/09/10 06:54:58;;;;;;;8.35;4.03;;;;;;;;;;5074652;28;20730;-49
2023/09/10 06:57:27;;;;;;;9.85;4.15;;;;;;;;;;5074690;28;20272;-56
2023/09/10 06:59:56;;;;;;;15.00;4.90;;;;;;;;;;5074545;28;20238;-52
2023/09/10 07:02:25;;;;;;;13.10;6.00;;;;;;;;;;5074434;28;20227;-51
2023/09/10 07:04:52;;;;;;;9.65;4.60;;;;;;;;;;5074333;28;20252;-49
2023/09/10 07:07:20;;;;;;;10.55;4.30;;;;;;;;;;5074446;28;20306;-51
2023/09/10 07:09:47;;;;;;;13.40;4.85;;;;;;;;;;5074383;28;20219;-53
2023/09/10 07:12:14;;;;;;;7.55;4.20;;;;;;;;;;5074457;28;20219;-50
2023/09/10 07:14:42;;;;;;;10.43;4.82;;;;;;;;;;5073710;28;20695;-50
2023/09/10 07:17:09;;;;;;;10.55;4.53;;;;;;;;;;5073660;28;20235;-49
2023/09/10 07:19:37;;;;;;;10.13;4.30;;;;;;;;;;5073712;28;20765;-48
2023/09/10 07:22:04;;;;;;;9.48;4.50;;;;;;;;;;5074236;28;20226;-48
2023/09/10 07:24:31;;;;;;;11.07;4.60;;;;;;;;;;5073555;28;20712;-50
2023/09/10 07:27:01;;;;;;;11.25;4.45;;;;;;;;;;5073958;28;20306;-49
2023/09/10 07:29:28;;;;;;;12.02;4.63;;;;;;;;;;5074080;28;20226;-49
2023/09/10 07:31:55;;;;;;;8.30;3.95;;;;;;;;;;5073567;28;20730;-52
2023/09/10 07:34:23;;;;;;;8.95;4.20;;;;;;;;;;5073741;28;20224;-49
2023/09/10 07:36:50;;;;;;;9.27;4.70;;;;;;;;;;5074086;28;20578;-50
2023/09/10 07:39:18;;;;;;;10.40;4.32;;;;;;;;;;5073626;28;20219;-51
2023/09/10 07:41:45;;;;;;;12.70;4.55;;;;;;;;;;5073545;28;20231;-49
2023/09/10 07:44:13;;;;;;;7.53;4.05;;;;;;;;;;5073740;28;20242;-49
2023/09/10 07:46:40;;;;;;;6.40;3.40;;;;;;;;;;5073297;28;20230;-52
2023/09/10 07:49:07;;;;;;;8.68;4.15;;;;;;;;;;5069666;28;20228;-49
2023/09/10 07:51:34;;;;;;;11.52;3.55;;;;;;;;;;5072199;28;20244;-49
2023/09/10 07:54:01;;;;;;;10.25;4.28;;;;;;;;;;5070287;28;20244;-55
2023/09/10 07:56:28;;;;;;;6.05;3.42;;;;;;;;;;5072861;28;20242;-52
2023/09/10 07:58:56;;;;;;;9.23;4.15;;;;;;;;;;5072328;28;20223;-54
2023/09/10 08:01:23;;;;;;;7.35;3.47;;;;;;;;;;5071472;28;20223;-53
2023/09/10 08:03:51;;;;;;;8.18;3.72;;;;;;;;;;5072611;28;20273;-49
2023/09/10 08:06:18;;;;;;;7.25;3.40;;;;;;;;;;5072785;28;20230;-51
2023/09/10 08:08:45;;;;;;;7.05;3.17;;;;;;;;;;5054163;28;20223;-47
2023/09/10 08:11:12;;;;;;;7.75;3.22;;;;;;;;;;5073028;28;20869;-48
2023/09/10 08:13:42;;;;;;;11.38;3.70;;;;;;;;;;5072656;28;20223;-47
2023/09/10 08:16:13;;;;;;;10.02;3.80;;;;;;;;;;5071980;28;20270;-52
2023/09/10 08:18:41;;;;;;;7.90;3.63;;;;;;;;;;5072136;28;20223;-53
2023/09/10 08:21:09;;;;;;;12.23;2.90;;;;;;;;;;5072577;28;20683;-50
2023/09/10 08:23:37;;;;;;;7.75;2.90;;;;;;;;;;5072278;28;20269;-57
2023/09/10 08:26:04;;;;;;;6.78;2.97;;;;;;;;;;5052483;28;20224;-49
2023/09/10 08:28:31;;;;;;;6.90;2.72;;;;;;;;;;5052178;28;20219;-50
2023/09/10 08:30:58;;;;;;;5.97;3.00;;;;;;;;;;5052218;28;20228;-47
2023/09/10 08:33:26;;;;;;;5.70;2.97;;;;;;;;;;5052714;28;20247;-47
2023/09/10 08:35:54;;;;;;;7.72;2.90;;;;;;;;;;5052295;28;20232;-50
2023/09/10 08:38:22;;;;;;;6.55;2.90;;;;;;;;;;5052698;28;20266;-50
2023/09/10 08:40:58;;;;;;;6.80;2.75;;;;;;;;;;5051914;28;20242;-49
2023/09/10 08:43:56;;;;;;;6.75;2.60;;;;;;;;;;5052226;28;20255;-52
2023/09/10 08:46:30;;;;;;;7.70;2.78;;;;;;;;;;5049509;28;20323;-53
2023/09/10 08:48:58;;;;;;;9.65;2.97;;;;;;;;;;5064983;28;20219;-49
2023/09/10 08:51:26;;;;;;;5.60;2.65;;;;;;;;;;5071935;28;20219;-54
2023/09/10 08:53:56;;;;;;;12.82;2.80;;;;;;;;;;5072479;28;20223;-55
2023/09/10 08:56:24;;;;;;;10.25;3.20;;;;;;;;;;5072427;28;20243;-52
2023/09/10 08:58:52;;;;;;;7.60;3.05;;;;;;;;;;5071787;28;20891;-54
2023/09/10 09:01:19;;;;;;;5.82;2.65;;;;;;;;;;5070996;28;20223;-54
2023/09/10 09:03:47;;;;;;;4.60;2.13;;;;;;;;;;5070548;28;20518;-52
2023/09/10 09:06:15;;;;;;;5.13;2.90;;;;;;;;;;5072370;28;20225;-50
2023/09/10 09:08:48;;;;;;;5.35;2.40;;;;;;;;;;5072082;28;20240;-55
2023/09/10 09:11:15;;;;;;;4.03;2.40;;;;;;;;;;5073757;28;20269;-50
2023/09/10 09:13:47;;;;;;;4.65;2.50;;;;;;;;;;5075246;28;20235;-55
2023/09/10 09:16:15;;;;;;;7.35;2.72;;;;;;;;;;5074450;28;20235;-55
2023/09/10 09:18:43;;;;;;;5.55;2.60;;;;;;;;;;5075939;28;20227;-58
2023/09/10 09:21:18;;;;;;;6.00;2.17;;;;;;;;;;5073689;28;20223;-55
2023/09/10 09:23:51;;;;;;;5.35;2.25;;;;;;;;;;5073997;28;20350;-54
2023/09/10 09:26:18;;;;;;;4.07;2.33;;;;;;;;;;5075927;28;20219;-57
2023/09/10 09:28:46;;;;;;;4.85;2.08;;;;;;;;;;5075183;28;20621;-57
2023/09/10 09:31:13;;;;;;;7.28;2.22;;;;;;;;;;5074495;28;20254;-55
2023/09/10 09:33:43;;;;;;;6.80;1.83;;;;;;;;;;5075547;28;20281;-58
2023/09/10 09:36:11;;;;;;;6.88;2.17;;;;;;;;;;5075785;28;20235;-57
2023/09/10 09:38:44;;;;;;;4.60;2.30;;;;;;;;;;5075397;28;20220;-58
2023/09/10 09:41:14;;;;;;;7.80;2.20;;;;;;;;;;5075627;28;20223;-55
2023/09/10 09:43:41;;;;;;;6.45;2.55;;;;;;;;;;5075011;28;20223;-57
2023/09/10 09:46:08;;;;;;;4.88;3.08;;;;;;;;;;5075146;28;20284;-56
2023/09/10 09:48:37;;;;;;;9.02;2.50;;;;;;;;;;5074697;28;20284;-56
2023/09/10 09:51:05;;;;;;;6.97;1.80;;;;;;;;;;5075727;28;20247;-53
2023/09/10 09:53:33;;;;;;;4.50;1.85;;;;;;;;;;5074723;28;20230;-55
2023/09/10 09:56:05;;;;;;;3.03;1.50;;;;;;;;;;5075323;28;20235;-57
2023/09/10 09:58:33;;;;;;;4.43;2.42;;;;;;;;;;5075071;28;20285;-56
2023/09/10 10:01:00;;;;;;;4.47;2.00;;;;;;;;;;5075180;28;20215;-55
2023/09/10 10:03:32;;;;;;;13.98;2.22;;;;;;;;;;5075019;28;20265;-51
2023/09/10 10:05:59;;;;;;;6.88;2.40;;;;;;;;;;5074950;28;20336;-55
2023/09/10 10:08:29;;;;;;;4.50;2.42;;;;;;;;;;5073610;28;20237;-50
2023/09/10 10:10:56;;;;;;;10.18;2.10;;;;;;;;;;5075088;28;20239;-55
2023/09/10 10:13:25;;;;;;;5.47;2.10;;;;;;;;;;5074992;28;20269;-57
2023/09/10 10:15:53;;;;;;;3.85;2.25;;;;;;;;;;5074323;28;20246;-57
2023/09/10 10:18:22;;;;;;;7.25;2.25;;;;;;;;;;5074677;28;20285;-57
2023/09/10 10:20:50;;;;;;;4.05;1.83;;;;;;;;;;5074055;28;20227;-57
2023/09/10 10:23:18;;;;;;;4.95;2.13;;;;;;;;;;5074758;28;20238;-54
2023/09/10 10:26:06;;;;;;;4.60;1.67;;;;;;;;;;5074791;28;20593;-53
2023/09/10 10:28:35;;;;;;;7.78;2.05;;;;;;;;;;5074404;28;20269;-56
2023/09/10 10:31:15;;;;;;;6.15;2.28;;;;;;;;;;5073640;28;20265;-58
2023/09/10 10:33:54;;;;;;;3.85;1.95;;;;;;;;;;5074576;28;20219;-58
2023/09/10 10:36:21;;;;;;;6.88;1.77;;;;;;;;;;5073940;28;20239;-55
2023/09/10 10:38:49;;;;;;;4.03;2.10;;;;;;;;;;5074043;28;20223;-59
2023/09/10 10:41:17;;;;;;;6.80;1.80;;;;;;;;;;5073405;28;20219;-59
2023/09/10 10:43:51;;;;;;;5.57;2.00;;;;;;;;;;5074372;28;20227;-58
2023/09/10 10:46:19;;;;;;;6.43;2.30;;;;;;;;;;5073474;28;20226;-59
2023/09/10 10:48:46;;;;;;;7.45;2.25;;;;;;;;;;5072173;28;20236;-57
2023/09/10 10:51:16;;;;;;;3.33;1.80;;;;;;;;;;5072935;28;20223;-58
2023/09/10 10:53:45;;;;;;;5.35;2.20;;;;;;;;;;5073569;28;20220;-59
2023/09/10 10:56:14;;;;;;;4.40;2.03;;;;;;;;;;5071311;28;20588;-58
2023/09/10 10:58:41;;;;;;;10.98;2.13;;;;;;;;;;5072837;28;20680;-59
2023/09/10 11:01:13;;;;;;;6.97;2.20;;;;;;;;;;5072534;28;20222;-57
2023/09/10 11:03:42;;;;;;;4.55;2.08;;;;;;;;;;5073310;28;20555;-58
2023/09/10 11:06:09;;;;;;;5.03;2.05;;;;;;;;;;5073598;28;20223;-58
2023/09/10 11:08:42;;;;;;;3.92;1.95;;;;;;;;;;5073426;28;20238;-58
2023/09/10 11:11:31;;;;;;;4.43;2.28;;;;;;;;;;5071731;28;20270;-58
2023/09/10 11:14:00;;;;;;;8.88;1.85;;;;;;;;;;5072786;28;20223;-58
2023/09/10 11:16:46;;;;;;;4.38;2.03;;;;;;;;;;5072953;28;20710;-57
2023/09/10 11:19:51;;;;;;;8.55;2.33;;;;;;;;;;5072179;28;20219;-58
2023/09/10 11:22:18;;;;;;;4.38;2.00;;;;;;;;;;5074025;28;20216;-58
2023/09/10 11:24:59;;;;;;;4.30;1.85;;;;;;;;;;5073753;28;20227;-58
2023/09/10 11:27:27;;;;;;;7.90;2.00;;;;;;;;;;5074197;28;20221;-59
2023/09/10 11:30:06;;;;;;;3.50;1.98;;;;;;;;;;5072868;28;20216;-58
2023/09/10 11:32:34;;;;;;;5.60;2.13;;;;;;;;;;5072767;28;20611;-59
2023/09/10 11:35:16;;;;;;;5.90;2.10;;;;;;;;;;5073481;28;20757;-58
2023/09/10 11:37:48;;;;;;;5.68;1.77;;;;;;;;;;5073860;28;20251;-55
2023/09/10 11:40:20;;;;;;;4.05;2.00;;;;;;;;;;5074133;28;20223;-50
2023/09/10 11:42:48;;;;;;;6.65;1.70;;;;;;;;;;5073768;28;20242;-50
2023/09/10 11:45:17;;;;;;;6.55;1.90;;;;;;;;;;5073598;28;20222;-49
2023/09/10 11:47:50;;;;;;;7.78;1.70;;;;;;;;;;5070348;28;20294;-50
2023/09/10 11:50:23;;;;;;;3.38;1.95;;;;;;;;;;5053960;28;20257;-51
2023/09/10 11:52:51;;;;;;;4.13;1.83;;;;;;;;;;5053756;28;20223;-50
2023/09/10 11:55:18;;;;;;;4.53;1.88;;;;;;;;;;5053619;28;20216;-50
2023/09/10 11:57:46;;;;;;;3.55;2.10;;;;;;;;;;5052195;28;20220;-49
2023/09/10 12:00:16;;;;;;;2.75;1.73;;;;;;;;;;5052983;28;20239;-51
2023/09/10 12:02:43;;;;;;;6.40;1.77;;;;;;;;;;5053509;28;20625;-50
2023/09/10 12:05:11;;;;;;;3.50;1.88;;;;;;;;;;5053332;28;20270;-49
2023/09/10 12:07:43;;;;;;;3.28;1.70;;;;;;;;;;5053196;28;20220;-50
2023/09/10 12:10:12;;;;;;;3.30;1.73;;;;;;;;;;5053276;28;20230;-53
2023/09/10 12:12:41;;;;;;;9.13;2.05;;;;;;;;;;5053332;28;20269;-52
2023/09/10 12:15:08;;;;;;;7.68;2.53;;;;;;;;;;5057862;28;20699;-44
2023/09/10 12:17:35;;;;;;;5.20;2.05;;;;;;;;;;5073217;28;20239;-47
2023/09/10 12:20:03;;;;;;;4.10;2.08;;;;;;;;;;5073014;28;20234;-45
2023/09/10 12:22:30;;;;;;;3.90;1.67;;;;;;;;;;5072983;28;20219;-48
2023/09/10 12:24:59;;;;;;;2.80;1.73;;;;;;;;;;5064341;28;20224;-47
2023/09/10 12:27:26;;;;;;;9.32;1.92;;;;;;;;;;5057766;28;20716;-55
2023/09/10 12:29:53;;;;;;;18.25;3.03;;;;;;;;;;5052859;28;20264;-58
2023/09/10 12:32:20;;;;;;;4.85;2.17;;;;;;;;;;5062057;28;20273;-56
2023/09/10 12:34:47;;;;;;;3.15;2.05;;;;;;;;;;5072339;28;20282;-56
2023/09/10 12:37:15;;;;;;;3.83;1.63;;;;;;;;;;5072344;28;20230;-56
2023/09/10 12:39:43;;;;;;;5.55;1.60;;;;;;;;;;5072298;28;20234;-56
2023/09/10 12:42:11;;;;;;;3.67;1.80;;;;;;;;;;5072454;28;20222;-47
2023/09/10 12:44:40;;;;;;;5.03;1.85;;;;;;;;;;5073303;28;20222;-50
2023/09/10 12:47:10;;;;;;;2.50;1.70;;;;;;;;;;5057348;28;20208;-47
2023/09/10 12:49:40;;;;;;;4.70;1.73;;;;;;;;;;5050921;28;20188;-47
2023/09/10 12:52:08;;;;;;;4.45;1.70;;;;;;;;;;5053088;28;20214;-48
2023/09/10 12:54:35;;;;;;;3.97;1.95;;;;;;;;;;5052276;28;20212;-48
2023/09/10 12:57:04;;;;;;;7.28;1.83;;;;;;;;;;5053245;28;20755;-48
2023/09/10 12:59:31;;;;;;;4.65;1.83;;;;;;;;;;5053490;28;20203;-47
2023/09/10 13:02:02;;;;;;;3.22;1.73;;;;;;;;;;5053180;28;20707;-47
2023/09/10 13:04:30;;;;;;;2.72;1.48;;;;;;;;;;5053204;28;20203;-47
2023/09/10 13:06:57;;;;;;;3.42;1.63;;;;;;;;;;5053425;28;20208;-47
2023/09/10 13:09:25;;;;;;;3.15;1.60;;;;;;;;;;5053382;28;20261;-48
2023/09/10 13:11:52;;;;;;;3.38;1.92;;;;;;;;;;5053077;28;20200;-47
2023/09/10 13:14:19;;;;;;;8.68;1.88;;;;;;;;;;5053004;28;20219;-47
2023/09/10 13:16:46;;;;;;;3.55;1.70;;;;;;;;;;5053325;28;20231;-47
2023/09/10 13:19:13;;;;;;;5.00;1.77;;;;;;;;;;5053108;28;20210;-48
2023/09/10 13:21:41;;;;;;;5.13;1.83;;;;;;;;;;5053497;28;20204;-48
2023/09/10 13:24:08;;;;;;;3.35;2.00;;;;;;;;;;5053282;28;20207;-47
2023/09/10 13:26:35;;;;;;;4.97;2.15;;;;;;;;;;5053319;28;20308;-50
2023/09/10 13:29:02;;;;;;;3.10;1.73;;;;;;;;;;5053051;28;20204;-48
2023/09/10 13:31:29;;;;;;;3.35;1.90;;;;;;;;;;5052950;28;20208;-48
2023/09/10 13:33:57;;;;;;;4.15;1.85;;;;;;;;;;5052904;28;20200;-48
2023/09/10 13:36:25;;;;;;;4.85;2.45;;;;;;;;;;5053034;28;20224;-48
2023/09/10 13:38:53;;;;;;;4.82;1.83;;;;;;;;;;5053034;28;20204;-48
2023/09/10 13:41:20;;;;;;;7.15;1.85;;;;;;;;;;5052851;28;20254;-48
2023/09/10 13:43:48;;;;;;;7.78;1.88;;;;;;;;;;5053138;28;20196;-48
2023/09/10 13:46:15;;;;;;;5.50;2.30;;;;;;;;;;5052852;28;20212;-47
2023/09/10 13:48:43;;;;;;;3.55;1.90;;;;;;;;;;5053151;28;20204;-47
2023/09/10 13:51:10;;;;;;;3.60;1.90;;;;;;;;;;5052683;28;20727;-48
2023/09/10 13:53:41;;;;;;;6.18;1.95;;;;;;;;;;5053282;28;20208;-48
2023/09/10 13:56:11;;;;;;;6.18;2.03;;;;;;;;;;5053553;28;20224;-53
2023/09/10 13:58:38;;;;;;;5.25;1.88;;;;;;;;;;5056702;28;20204;-47
2023/09/10 14:01:07;;;;;;;5.25;1.83;;;;;;;;;;5056337;28;20204;-47
2023/09/10 14:03:35;;;;;;;4.03;1.83;;;;;;;;;;5056307;28;20200;-47
2023/09/10 14:06:03;;;;;;;4.72;2.13;;;;;;;;;;5056368;28;20204;-47
2023/09/10 14:08:30;;;;;;;6.85;1.92;;;;;;;;;;5056474;28;20196;-47
2023/09/10 14:10:57;;;;;;;7.93;1.98;;;;;;;;;;5056136;28;20560;-47
2023/09/10 14:13:25;;;;;;;3.10;1.73;;;;;;;;;;5056203;28;20204;-48
2023/09/10 14:15:52;;;;;;;9.73;2.30;;;;;;;;;;5056248;28;20774;-47
2023/09/10 14:18:19;;;;;;;8.77;2.35;;;;;;;;;;5056153;28;20227;-48
2023/09/10 14:20:46;;;;;;;6.47;2.42;;;;;;;;;;5056245;28;20262;-48
2023/09/10 14:23:14;;;;;;;6.60;1.98;;;;;;;;;;5056164;28;20203;-48
2023/09/10 14:25:41;;;;;;;4.22;1.98;;;;;;;;;;5056170;28;20195;-48
2023/09/10 14:28:09;;;;;;;4.93;1.83;;;;;;;;;;5056101;28;20273;-47
2023/09/10 14:30:36;;;;;;;3.20;2.00;;;;;;;;;;5056099;28;20291;-48
2023/09/10 14:33:03;;;;;;;4.82;2.28;;;;;;;;;;5056055;28;20211;-47
2023/09/10 14:35:30;;;;;;;3.58;2.08;;;;;;;;;;5055969;28;20200;-47
2023/09/10 14:37:58;;;;;;;6.72;1.63;;;;;;;;;;5055616;28;20281;-47
2023/09/10 14:40:26;;;;;;;6.50;1.95;;;;;;;;;;5055833;28;20207;-47
2023/09/10 14:42:53;;;;;;;4.80;2.33;;;;;;;;;;5053833;28;20575;-50
2023/09/10 14:45:20;;;;;;;4.38;2.03;;;;;;;;;;5054942;28;20614;-47
2023/09/10 14:47:47;;;;;;;4.38;1.90;;;;;;;;;;5055491;28;20204;-47
2023/09/10 14:50:15;;;;;;;2.95;1.73;;;;;;;;;;5055528;28;20212;-47